< Cyclone 198902 1989 Season Cyclone 198904 >
Cyclone 198903 (JOHN)
General InformationTrack Information on Google MapsDetailed Wind InformationList of All Images || ResourceGoogle EarthGE AnimationAtom FeedGeoJSON
Detalied Best Track (Time Zone = UTC)
Year Month Day Hour Lat. Long. Pressure (hPa) Wind (kt) Class Image Chart
1989 1 23 06 -7.5 103.3 1004 0 0 Image --
1989 1 23 12 -8.1 103.6 1004 0 0 Image --
1989 1 23 18 -8.6 103.8 1004 0 0 Image --
1989 1 24 00 -9.3 104.0 1004 0 0 Image --
1989 1 24 06 -10.1 103.4 1003 0 0 Image --
1989 1 24 12 -10.5 102.5 1002 21 2 Image --
1989 1 24 18 -10.7 101.4 1001 23 2 Image --
1989 1 25 00 -11.1 100.4 1000 25 2 Image --
1989 1 25 06 -11.3 99.7 999 27 2 Image --
1989 1 25 12 -11.5 98.8 999 27 2 Image --
1989 1 25 15 -11.6 98.4 998 29 2 Image --
1989 1 25 18 -11.7 98.1 997 31 2 Image --
1989 1 25 21 -11.8 97.6 997 31 2 Image --
1989 1 26 00 -11.9 97.1 997 31 2 Image --
1989 1 26 03 -11.9 96.8 997 31 2 Image --
1989 1 26 06 -11.9 96.7 996 33 2 Image --
1989 1 26 09 -11.9 96.5 995 35 3 Image --
1989 1 26 12 -12.0 96.3 994 35 3 Image --
1989 1 26 15 -12.1 96.2 992 39 3 Image --
1989 1 26 18 -12.1 96.0 991 41 3 Image --
1989 1 27 00 -12.2 95.7 990 41 3 Image --
1989 1 27 06 -12.3 95.0 990 41 3 Image --
1989 1 27 12 -12.9 94.0 990 41 3 Image --
1989 1 27 18 -13.5 94.9 990 41 3 Image --
1989 1 28 00 -14.1 96.0 990 41 3 Image --
1989 1 28 06 -15.2 97.2 992 39 3 Image --
1989 1 28 12 -16.3 98.3 993 37 3 Image --
1989 1 28 18 -17.5 99.6 995 35 3 Image --
1989 1 29 00 -18.8 100.8 997 31 2 Image --
1989 1 29 06 -19.4 101.0 997 31 2 Image --
1989 1 29 12 -20.1 101.2 998 29 2 Image --
1989 1 29 18 -20.7 101.3 998 29 2 Image --
1989 1 30 00 -21.4 101.6 998 29 2 Image --
1989 1 30 06 -22.0 101.9 999 27 2 Image --
1989 1 30 12 -22.7 102.2 999 27 2 Image --
1989 1 30 18 -23.5 102.5 1000 25 2 Image --
1989 1 31 00 -24.2 102.7 1000 25 2 Image --
1989 1 31 06 -24.9 103.0 1000 25 2 Image --
1989 1 31 12 -25.2 103.8 1001 23 2 Image --
1989 1 31 18 -25.6 104.8 1001 23 2 Image --
1989 2 1 00 -26.2 105.6 1002 21 2 Image --
1989 2 1 06 -26.8 106.0 1002 21 2 Image --
1989 2 1 12 -26.5 105.6 1004 0 0 Image --
1989 2 1 18 -26.2 105.3 1006 0 0 Image --
1989 2 2 00 -25.9 105.0 1008 0 0 Image --
1989 2 2 06 -25.8 104.1 1008 0 0 Image --
< Cyclone 198902 1989 Season Cyclone 198904 >

Help